Saturday, November 18, 2017, 7:12 AM EST
Back to Local

KILG, Wilmington New Castle Co

Location: New Castle, DE, United States Lat: 39.667
Local Time: 7:12 AM EST (12:12 GMT) Lon: -75.6
Time Zone: US/Eastern Elev: 78 ft

Show me the last for .
Show Decoded

2017-11-18 06:51 METAR KILG 181151Z 19007KT 10SM CLR 03/M01 A2997 RMK AO2 SLP150 T00281006 10028
                 21017 58018 =
2017-11-18 05:51 METAR KILG 181051Z 00000KT 10SM CLR 00/M02 A3000 RMK AO2 SLP160 T00001017 =
2017-11-18 04:51 METAR KILG 180951Z 00000KT 10SM CLR M02/M03 A3001 RMK AO2 SLP164 T10171028 =
2017-11-18 03:51 METAR KILG 180851Z 00000KT 10SM CLR 00/M03 A3002 RMK AO2 SLP166 T00001033 56016
                 =
2017-11-18 02:51 METAR KILG 180751Z 21003KT 10SM CLR 00/M03 A3004 RMK AO2 SLP172 T00001028 =
2017-11-18 01:51 METAR KILG 180651Z 00000KT 10SM CLR 01/M02 A3005 RMK AO2 SLP176 T00061017 =
2017-11-18 00:51 METAR KILG 180551Z 00000KT 10SM CLR 01/M02 A3007 RMK AO2 SLP183 T00111022 10056
                 20000 58017 =
2017-11-17 23:51 METAR KILG 180451Z 00000KT 10SM CLR 01/M03 A3009 RMK AO2 SLP189 T00061028
                 401060000 =
2017-11-17 22:51 METAR KILG 180351Z 16003KT 10SM CLR 02/M03 A3012 RMK AO2 SLP199 T00221028 =
2017-11-17 21:51 METAR KILG 180251Z 00000KT 10SM CLR 03/M03 A3012 RMK AO2 SLP199 T00331033 58006
                 =
2017-11-17 20:51 METAR KILG 180151Z 31003KT 10SM CLR 03/M03 A3013 RMK AO2 SLP201 T00331028 =
2017-11-17 19:51 METAR KILG 180051Z 26003KT 10SM CLR 04/M03 A3013 RMK AO2 SLP204 T00441033 =
2017-11-17 18:51 METAR KILG 172351Z 25005KT 10SM CLR 05/M03 A3014 RMK AO2 SLP205 T00501033 10106
                 20050 50002 =
2017-11-17 17:51 METAR KILG 172251Z 28004KT 10SM CLR 06/M03 A3014 RMK AO2 SLP205 T00611028 =
2017-11-17 16:51 METAR KILG 172151Z 31008KT 10SM CLR 07/M03 A3014 RMK AO2 SLP205 T00721033 =
2017-11-17 15:51 METAR KILG 172051Z 31011KT 10SM CLR 10/M04 A3013 RMK AO2 SLP203 T01001039 55004
                 =
2017-11-17 14:51 METAR KILG 171951Z 30011KT 10SM CLR 11/M04 A3012 RMK AO2 WSHFT 1900 SLP200
                 T01061039 =
2017-11-17 14:20 METAR KILG 171920Z 32012G19KT 10SM CLR 11/M04 A3013 RMK AO2 WSHFT 1900 T01061044
                 =
2017-11-17 13:51 METAR KILG 171851Z 34013KT 10SM CLR 11/M04 A3013 RMK AO2 SLP201 T01061044 =
2017-11-17 12:51 METAR KILG 171751Z 34016KT 10SM CLR 10/M04 A3014 RMK AO2 SLP207 T01001039 10100
                 20044 58013 =
2017-11-17 11:51 METAR KILG 171651Z 33014KT 10SM CLR 10/M03 A3016 RMK AO2 SLP211 T01001028 =
2017-11-17 10:51 METAR KILG 171551Z 30015KT 10SM CLR 09/M02 A3017 RMK AO2 SLP216 T00891022 =
2017-11-17 09:51 METAR KILG 171451Z 31016G21KT 10SM CLR 08/M02 A3018 RMK AO2 SLP219 T00781022
                 51016 =
2017-11-17 08:51 METAR KILG 171351Z 30014KT 10SM CLR 07/M02 A3018 RMK AO2 SLP219 T00671017 =
2017-11-17 07:51 METAR KILG 171251Z 28010KT 10SM SCT044 05/M02 A3016 RMK AO2 SLP212 T00501017 =

Support USWX by starting your Amazon purchase here.